Portland, Oregon
Traffic Map
Current Weather Conditions
Portland, Oregon
Clear
Clear
34°
Feels Like: 34°
Wind Chill: 34° Ceiling: Unl
Heat Index: 34° Visibility: 10mi
Dew Point: 33° Wind: 3mph
Humidity: 96% Direction: 290° (WNW)
Pressure: 30.31in Gusts: 0mph
Raw Report DataKPDX 301153Z 29003KT 10SM CLR 01/01 A3031 RMK AO2 SLP264 T00110006 10056 20011 51005
Traffic Incident Summary
Active as of:
Severity:
Category:
InformationThere was an issue retrieving the traffic information for this location. Please try a different location or try again shortly.
Advertisements
Track Severe Weather on mobile